Time;durP1;ratioP1;P1;durP2;ratioP2;P2;SDS_P1;SDS_P2;PMS_P1;PMS_P2;Temp;Humidity;BMP_temperature;BMP_pressure;BME280_temperature;BME280_humidity;BME280_pressure;Samples;Min_cycle;Max_cycle;Signal;HPM_P1;HPM_P2
2022/07/26 00:01:30;;;;;;;2.45;1.17;;;19.80;67.20;;;;;;5053222;28;20075;-47
2022/07/26 00:03:56;;;;;;;2.67;1.05;;;19.80;67.30;;;;;;5052865;28;20167;-46
2022/07/26 00:06:22;;;;;;;5.22;1.60;;;19.80;67.40;;;;;;5052888;28;20040;-45
2022/07/26 00:08:48;;;;;;;4.35;1.23;;;19.80;67.40;;;;;;5052898;28;20481;-45
2022/07/26 00:11:14;;;;;;;3.58;1.65;;;19.80;67.50;;;;;;5052814;28;20075;-46
2022/07/26 00:13:40;;;;;;;3.72;1.48;;;19.80;67.50;;;;;;5054457;28;20048;-45
2022/07/26 00:16:06;;;;;;;4.28;1.35;;;19.70;67.60;;;;;;5053925;28;20117;-46
2022/07/26 00:18:32;;;;;;;1.92;1.33;;;19.70;68.00;;;;;;5053232;28;20028;-45
2022/07/26 00:21:16;;;;;;;5.53;1.60;;;19.50;68.30;;;;;;5053581;28;20431;-46
2022/07/26 00:23:42;;;;;;;2.20;1.27;;;19.50;68.40;;;;;;5054853;28;20525;-46
2022/07/26 00:26:26;;;;;;;3.97;1.48;;;19.40;68.80;;;;;;5052704;28;20056;-45
2022/07/26 00:28:52;;;;;;;10.25;1.63;;;19.40;68.70;;;;;;5053303;28;20029;-48
2022/07/26 00:31:18;;;;;;;3.50;1.48;;;19.30;69.20;;;;;;5053369;28;20028;-45
2022/07/26 00:33:44;;;;;;;6.95;1.63;;;19.30;69.10;;;;;;5056016;28;20460;-46
2022/07/26 00:36:09;;;;;;;5.57;1.48;;;19.20;69.40;;;;;;5054173;28;20154;-44
2022/07/26 00:38:35;;;;;;;8.40;1.75;;;19.20;69.50;;;;;;5055717;28;20025;-46
2022/07/26 00:41:01;;;;;;;2.03;1.40;;;19.10;69.80;;;;;;5056978;28;20082;-45
2022/07/26 00:43:26;;;;;;;3.47;1.30;;;19.10;70.00;;;;;;5057317;28;20039;-46
2022/07/26 00:45:52;;;;;;;4.03;1.63;;;19.00;70.00;;;;;;5057154;28;20118;-47
2022/07/26 00:48:18;;;;;;;5.72;1.55;;;19.00;70.30;;;;;;5057036;28;20044;-46
2022/07/26 00:50:44;;;;;;;6.78;1.27;;;19.00;70.40;;;;;;5055379;28;20485;-46
2022/07/26 00:53:10;;;;;;;4.32;1.80;;;19.00;70.30;;;;;;5056767;28;20025;-46
2022/07/26 00:55:36;;;;;;;5.32;1.55;;;18.90;70.50;;;;;;5056663;28;20080;-46
2022/07/26 00:58:01;;;;;;;3.67;1.30;;;19.00;70.50;;;;;;5056490;28;20108;-46
2022/07/26 01:00:28;;;;;;;6.53;1.55;;;18.80;70.70;;;;;;5056803;28;20047;-46
2022/07/26 01:02:54;;;;;;;3.92;1.58;;;18.80;70.90;;;;;;5056732;28;20492;-46
2022/07/26 01:05:21;;;;;;;5.82;1.40;;;18.80;70.90;;;;;;5056051;28;20129;-45
2022/07/26 01:07:48;;;;;;;6.45;1.70;;;18.80;71.00;;;;;;5056130;28;20021;-46
2022/07/26 01:10:14;;;;;;;3.70;1.38;;;18.80;71.10;;;;;;5055738;28;20100;-46
2022/07/26 01:12:41;;;;;;;6.28;1.50;;;18.80;71.00;;;;;;5055783;28;20571;-47
2022/07/26 01:15:08;;;;;;;2.38;1.17;;;18.80;71.10;;;;;;5054747;28;20477;-47
2022/07/26 01:17:33;;;;;;;8.73;1.45;;;18.80;71.10;;;;;;5055923;28;20521;-47
2022/07/26 01:19:59;;;;;;;4.05;1.50;;;18.80;71.20;;;;;;5055650;28;20048;-47
2022/07/26 01:22:25;;;;;;;3.60;1.50;;;18.80;71.00;;;;;;5055634;28;20037;-45
2022/07/26 01:24:50;;;;;;;9.40;1.60;;;18.90;71.00;;;;;;5054126;28;20033;-46
2022/07/26 01:27:16;;;;;;;6.22;2.45;;;19.00;70.60;;;;;;5055314;28;20104;-46
2022/07/26 01:29:42;;;;;;;1.85;1.17;;;19.10;70.50;;;;;;5055336;28;20021;-46
2022/07/26 01:32:08;;;;;;;5.70;1.63;;;19.00;70.50;;;;;;5055060;28;20131;-45
2022/07/26 01:34:34;;;;;;;1.95;1.00;;;19.00;70.80;;;;;;5055402;28;20051;-47
2022/07/26 01:36:59;;;;;;;6.70;1.63;;;19.00;70.80;;;;;;5055185;28;20099;-46
2022/07/26 01:39:25;;;;;;;2.17;1.50;;;19.20;70.40;;;;;;5055284;28;20028;-45
2022/07/26 01:41:51;;;;;;;12.05;1.80;;;19.10;70.30;;;;;;5055147;28;20083;-47
2022/07/26 01:44:16;;;;;;;7.63;1.70;;;19.20;70.30;;;;;;5055146;28;20029;-47
2022/07/26 01:46:42;;;;;;;4.95;1.75;;;19.20;70.40;;;;;;5055082;28;20485;-46
2022/07/26 01:49:08;;;;;;;10.30;2.05;;;19.20;70.50;;;;;;5055037;28;20040;-48
2022/07/26 01:51:34;;;;;;;8.75;2.85;;;19.20;70.50;;;;;;5054825;28;20102;-45
2022/07/26 01:54:00;;;;;;;5.93;1.70;;;19.20;70.50;;;;;;5055058;28;20049;-45
2022/07/26 01:56:26;;;;;;;5.20;1.58;;;19.20;70.40;;;;;;5055085;28;20097;-45
2022/07/26 01:58:52;;;;;;;6.13;1.55;;;19.30;70.30;;;;;;5055062;28;20493;-46
2022/07/26 02:01:18;;;;;;;6.35;1.70;;;19.20;70.50;;;;;;5055014;28;20040;-45
2022/07/26 02:03:45;;;;;;;3.13;1.52;;;19.20;70.40;;;;;;5053717;28;20435;-45
2022/07/26 02:06:11;;;;;;;2.92;1.55;;;19.20;70.60;;;;;;5053623;28;20032;-45
2022/07/26 02:08:36;;;;;;;5.47;1.52;;;19.20;70.60;;;;;;5054922;28;20131;-45
2022/07/26 02:11:02;;;;;;;13.15;3.05;;;19.30;70.60;;;;;;5054443;28;20131;-46
2022/07/26 02:13:46;;;;;;;3.38;1.90;;;19.30;70.10;;;;;;5054458;28;20025;-47
2022/07/26 02:16:13;;;;;;;8.05;2.08;;;19.30;69.90;;;;;;5054458;28;20028;-47
2022/07/26 02:18:39;;;;;;;4.45;2.03;;;19.30;70.00;;;;;;5054646;28;20025;-46
2022/07/26 02:21:06;;;;;;;3.65;1.63;;;19.30;70.40;;;;;;5054553;28;20368;-46
2022/07/26 02:23:35;;;;;;;6.13;1.95;;;19.20;70.70;;;;;;5054248;28;20048;-44
2022/07/26 02:26:00;;;;;;;4.20;1.90;;;19.30;70.50;;;;;;5054423;28;20051;-47
2022/07/26 02:28:27;;;;;;;5.05;2.20;;;19.20;70.90;;;;;;5052981;28;20501;-45
2022/07/26 02:30:52;;;;;;;10.70;2.20;;;19.10;71.00;;;;;;5054397;28;20028;-46
2022/07/26 02:33:19;;;;;;;4.88;2.20;;;19.10;71.50;;;;;;5054871;28;20077;-50
2022/07/26 02:35:45;;;;;;;8.40;3.22;;;19.20;71.00;;;;;;5054244;28;20116;-46
2022/07/26 02:38:13;;;;;;;8.45;2.55;;;19.30;70.90;;;;;;5054146;28;20026;-46
2022/07/26 02:40:40;;;;;;;3.88;1.90;;;19.30;70.60;;;;;;5053884;28;20024;-46
2022/07/26 02:43:07;;;;;;;8.82;3.42;;;19.20;71.00;;;;;;5054196;28;20025;-47
2022/07/26 02:45:33;;;;;;;8.38;2.63;;;19.30;71.10;;;;;;5054175;28;20021;-46
2022/07/26 02:47:59;;;;;;;11.07;3.65;;;19.20;71.30;;;;;;5053843;28;20031;-45
2022/07/26 02:50:26;;;;;;;16.00;3.25;;;19.20;71.40;;;;;;5053469;28;20528;-46
2022/07/26 02:52:53;;;;;;;9.40;2.67;;;19.30;71.50;;;;;;5053883;28;20025;-46
2022/07/26 02:55:21;;;;;;;4.60;2.30;;;19.20;71.80;;;;;;5053962;28;20021;-47
2022/07/26 02:57:47;;;;;;;4.88;2.13;;;19.20;72.00;;;;;;5053720;28;20112;-46
2022/07/26 03:00:15;;;;;;;10.95;2.55;;;19.20;71.80;;;;;;5052480;28;20024;-47
2022/07/26 03:02:41;;;;;;;4.07;2.10;;;19.20;71.90;;;;;;5053555;28;20079;-45
2022/07/26 03:05:07;;;;;;;7.47;2.35;;;19.30;71.60;;;;;;5053620;28;20469;-47
2022/07/26 03:07:33;;;;;;;4.28;2.45;;;19.10;72.10;;;;;;5053774;28;20055;-45
2022/07/26 03:09:59;;;;;;;6.85;2.60;;;19.20;71.70;;;;;;5053331;28;20025;-45
2022/07/26 03:12:25;;;;;;;10.52;2.70;;;19.00;72.40;;;;;;5053702;28;20029;-46
2022/07/26 03:14:51;;;;;;;9.15;1.92;;;19.10;72.50;;;;;;5052216;28;20124;-46
2022/07/26 03:17:17;;;;;;;9.80;2.88;;;19.10;72.40;;;;;;5052172;28;20033;-46
2022/07/26 03:19:43;;;;;;;8.05;2.25;;;19.10;72.50;;;;;;5053539;28;20066;-48
2022/07/26 03:22:10;;;;;;;8.35;2.25;;;18.90;73.10;;;;;;5051976;28;20029;-46
2022/07/26 03:24:36;;;;;;;9.70;4.30;;;18.90;73.30;;;;;;5053195;28;20110;-47
2022/07/26 03:27:02;;;;;;;6.50;3.25;;;19.00;73.30;;;;;;5053427;28;20025;-46
2022/07/26 03:29:28;;;;;;;10.63;2.95;;;19.00;73.10;;;;;;5053275;28;20033;-46
2022/07/26 03:31:54;;;;;;;4.75;2.17;;;19.10;73.00;;;;;;5052960;28;20496;-46
2022/07/26 03:34:20;;;;;;;5.15;2.40;;;19.00;73.50;;;;;;5053090;28;20028;-45
2022/07/26 03:36:45;;;;;;;4.30;2.20;;;18.90;73.80;;;;;;5053159;28;20031;-47
2022/07/26 03:39:11;;;;;;;11.68;2.45;;;18.90;73.80;;;;;;5052958;28;20021;-46
2022/07/26 03:41:37;;;;;;;10.32;3.35;;;18.90;74.10;;;;;;5053209;28;20377;-46
2022/07/26 03:44:05;;;;;;;8.27;2.88;;;18.80;74.20;;;;;;5052956;28;20033;-46
2022/07/26 03:46:30;;;;;;;12.10;2.42;;;18.90;74.40;;;;;;5052811;28;20078;-45
2022/07/26 03:48:56;;;;;;;7.90;2.25;;;18.80;74.80;;;;;;5053139;28;20021;-50
2022/07/26 03:51:22;;;;;;;3.22;2.17;;;18.70;75.50;;;;;;5052736;28;20067;-45
2022/07/26 19:47:15;;;;;;;2.20;1.02;;;18.90;66.20;;;;;;5127140;27;20390;-40
2022/07/26 19:49:41;;;;;;;5.40;1.65;;;18.80;65.50;;;;;;5092865;28;20440;-39
2022/07/26 19:52:06;;;;;;;7.47;1.85;;;18.90;65.50;;;;;;5110676;28;20126;-40
2022/07/26 19:54:32;;;;;;;5.63;1.63;;;19.00;65.50;;;;;;5110814;28;20080;-39
2022/07/26 19:56:58;;;;;;;10.18;1.48;;;19.10;65.80;;;;;;5111867;28;20360;-39
2022/07/26 19:59:24;;;;;;;8.02;2.15;;;19.10;65.80;;;;;;5110582;28;20020;-39
2022/07/26 20:01:51;;;;;;;5.38;1.40;;;19.10;66.20;;;;;;5110860;28;20016;-38
2022/07/26 20:04:17;;;;;;;4.97;1.48;;;19.10;65.60;;;;;;5110847;28;20456;-38
2022/07/26 20:06:43;;;;;;;9.85;2.03;;;19.00;65.20;;;;;;5110664;28;20439;-38
2022/07/26 20:09:08;;;;;;;7.78;1.55;;;19.00;64.80;;;;;;5110733;28;20024;-38
2022/07/26 20:11:34;;;;;;;6.18;1.63;;;19.00;64.60;;;;;;5110564;28;20054;-39
2022/07/26 20:14:00;;;;;;;7.63;1.63;;;18.90;64.90;;;;;;5110494;28;20467;-39
2022/07/26 20:16:27;;;;;;;7.60;1.90;;;18.80;64.30;;;;;;5110537;28;20055;-41
2022/07/26 20:18:52;;;;;;;2.88;1.00;;;18.80;63.70;;;;;;5092453;28;20407;-39
2022/07/26 20:21:18;;;;;;;6.82;1.70;;;18.80;63.10;;;;;;5110594;28;20028;-39
2022/07/26 20:23:44;;;;;;;7.95;1.58;;;18.70;63.50;;;;;;5110454;28;20445;-38
2022/07/26 20:26:12;;;;;;;3.90;1.45;;;18.80;62.90;;;;;;5110004;28;20081;-39
2022/07/26 20:28:37;;;;;;;8.98;1.63;;;18.60;63.00;;;;;;5110477;28;20062;-39
2022/07/26 20:31:03;;;;;;;4.72;1.30;;;18.50;62.60;;;;;;5109954;28;20054;-39
2022/07/26 20:33:29;;;;;;;11.02;1.40;;;18.50;62.50;;;;;;5110786;28;20032;-39
2022/07/26 20:35:54;;;;;;;6.05;1.65;;;18.40;62.50;;;;;;5110186;28;20024;-39
2022/07/26 20:38:20;;;;;;;8.10;1.55;;;18.40;62.30;;;;;;5109917;28;20016;-38
2022/07/26 20:40:46;;;;;;;5.32;1.08;;;18.40;62.40;;;;;;5109825;28;20088;-39
2022/07/26 20:43:12;;;;;;;8.63;1.42;;;18.40;62.60;;;;;;5108720;28;20027;-39
2022/07/26 20:45:37;;;;;;;4.60;1.67;;;18.30;63.30;;;;;;5108615;28;20044;-39
2022/07/26 20:48:03;;;;;;;3.13;1.40;;;18.30;63.40;;;;;;5108502;28;20036;-40
2022/07/26 20:50:32;;;;;;;3.67;1.30;;;18.30;63.60;;;;;;5109837;28;20437;-38
2022/07/26 20:52:58;;;;;;;4.35;0.98;;;18.20;63.40;;;;;;5108555;28;20024;-39
2022/07/26 20:55:24;;;;;;;6.57;1.85;;;18.20;63.80;;;;;;5109813;28;20016;-40
2022/07/26 20:57:49;;;;;;;9.27;1.35;;;18.10;63.30;;;;;;5100476;28;20028;-39
2022/07/26 21:00:16;;;;;;;5.85;1.10;;;18.00;61.80;;;;;;5096087;28;20024;-39
2022/07/26 21:02:42;;;;;;;1.92;1.20;;;17.90;62.00;;;;;;5094644;28;20028;-38
2022/07/26 21:05:08;;;;;;;5.22;1.13;;;17.80;62.70;;;;;;5094534;28;20028;-38
2022/07/26 21:07:34;;;;;;;4.25;1.20;;;17.90;62.70;;;;;;5096190;28;20387;-38
2022/07/26 21:10:00;;;;;;;2.97;1.60;;;17.80;62.50;;;;;;5095949;28;20047;-38
2022/07/26 21:12:26;;;;;;;4.55;1.50;;;17.80;62.40;;;;;;5095755;28;20052;-39
2022/07/26 21:14:52;;;;;;;3.22;1.35;;;17.90;62.50;;;;;;5094430;28;20028;-39
2022/07/26 21:17:17;;;;;;;3.75;1.25;;;17.90;61.70;;;;;;5095636;28;20409;-39
2022/07/26 21:19:43;;;;;;;8.98;1.50;;;17.80;61.50;;;;;;5095733;28;20441;-39
2022/07/26 21:22:09;;;;;;;3.90;1.10;;;17.80;61.30;;;;;;5096049;28;20070;-38
2022/07/26 21:24:35;;;;;;;7.88;2.53;;;17.80;61.20;;;;;;5095765;28;20331;-39
2022/07/26 21:27:02;;;;;;;1.80;0.98;;;17.80;60.40;;;;;;5096383;28;20494;-41
2022/07/26 21:29:28;;;;;;;4.30;1.52;;;17.70;60.40;;;;;;5095469;28;20028;-39
2022/07/26 21:31:54;;;;;;;5.25;1.25;;;17.70;60.70;;;;;;5095640;28;20090;-39
2022/07/26 21:34:20;;;;;;;2.80;1.00;;;17.70;60.60;;;;;;5095312;28;20028;-38
2022/07/26 21:36:46;;;;;;;9.07;1.35;;;17.80;60.70;;;;;;5095950;28;20024;-38
2022/07/26 21:39:11;;;;;;;7.10;1.35;;;17.70;60.50;;;;;;5093892;28;20119;-38
2022/07/26 21:41:37;;;;;;;2.97;1.25;;;17.80;60.30;;;;;;5095301;28;20028;-39
2022/07/26 21:44:03;;;;;;;3.60;1.30;;;17.70;59.70;;;;;;5095223;28;20024;-39
2022/07/26 21:46:29;;;;;;;4.32;0.82;;;17.70;59.80;;;;;;5094824;28;20040;-39
2022/07/26 21:48:55;;;;;;;2.40;0.82;;;17.60;59.80;;;;;;5093726;28;20123;-42
2022/07/26 21:51:21;;;;;;;6.18;1.48;;;17.70;59.80;;;;;;5094923;28;20055;-39
2022/07/26 21:53:46;;;;;;;3.92;0.88;;;17.70;59.40;;;;;;5093750;28;20471;-39
2022/07/26 21:56:12;;;;;;;2.15;1.25;;;17.70;59.10;;;;;;5095074;28;20133;-39
2022/07/26 21:58:38;;;;;;;2.60;0.80;;;17.70;59.10;;;;;;5095264;28;20078;-39
2022/07/26 22:01:05;;;;;;;1.60;0.95;;;17.60;59.30;;;;;;5095142;28;20028;-39
2022/07/26 22:03:32;;;;;;;5.35;1.15;;;17.50;59.40;;;;;;5094958;28;20058;-39
2022/07/26 22:05:58;;;;;;;2.72;1.35;;;17.50;59.70;;;;;;5094814;28;20074;-39
2022/07/26 22:08:25;;;;;;;2.80;0.90;;;17.30;59.80;;;;;;5094255;28;20024;-40
2022/07/26 22:10:51;;;;;;;2.80;0.88;;;17.30;60.00;;;;;;5094304;28;20030;-39
2022/07/26 22:13:17;;;;;;;3.78;1.10;;;17.30;60.50;;;;;;5095011;28;20035;-39
2022/07/26 22:15:44;;;;;;;2.78;1.45;;;17.20;60.80;;;;;;5093450;28;20020;-39
2022/07/26 22:18:11;;;;;;;3.65;1.08;;;17.10;61.30;;;;;;5094760;28;20110;-39
2022/07/26 22:20:37;;;;;;;5.63;2.00;;;17.10;61.60;;;;;;5094428;28;20039;-39
2022/07/26 22:23:05;;;;;;;9.32;1.92;;;17.10;61.80;;;;;;5094449;28;20028;-39
2022/07/26 22:25:32;;;;;;;3.42;1.27;;;17.00;62.10;;;;;;5094617;28;20024;-39
2022/07/26 22:27:59;;;;;;;2.08;0.70;;;17.00;62.20;;;;;;5093171;28;20024;-40
2022/07/26 22:30:27;;;;;;;4.55;2.35;;;16.80;62.70;;;;;;5094689;28;20023;-39
2022/07/26 22:32:57;;;;;;;6.32;1.05;;;16.80;63.30;;;;;;5094653;28;20428;-39
2022/07/26 22:35:27;;;;;;;5.13;1.40;;;16.80;63.50;;;;;;5094408;28;20024;-39
2022/07/26 22:37:54;;;;;;;2.15;1.17;;;16.80;63.90;;;;;;5093701;28;20372;-40
2022/07/26 22:40:20;;;;;;;6.28;1.70;;;16.70;64.30;;;;;;5094152;28;20368;-38
2022/07/26 22:42:47;;;;;;;4.43;1.45;;;16.60;64.80;;;;;;5093847;28;20032;-39
2022/07/26 22:45:13;;;;;;;2.92;1.10;;;16.60;65.20;;;;;;5093661;28;20533;-39
2022/07/26 22:47:39;;;;;;;2.40;0.90;;;16.60;65.40;;;;;;5094124;28;20429;-39
2022/07/26 22:50:06;;;;;;;2.80;1.10;;;16.50;65.50;;;;;;5094016;28;20024;-40
2022/07/26 22:52:32;;;;;;;2.58;0.98;;;16.50;65.90;;;;;;5094087;28;20055;-40
2022/07/26 22:54:57;;;;;;;2.45;1.38;;;16.30;66.20;;;;;;5094195;28;20062;-38
2022/07/26 22:57:23;;;;;;;2.95;1.02;;;16.30;66.40;;;;;;5093847;28;20472;-42
2022/07/26 22:59:49;;;;;;;4.78;1.20;;;16.40;66.40;;;;;;5093719;28;20474;-39
2022/07/26 23:02:15;;;;;;;2.15;0.93;;;16.30;66.50;;;;;;5094522;28;20024;-39
2022/07/26 23:04:40;;;;;;;2.50;0.93;;;16.30;66.70;;;;;;5093761;28;20020;-44
2022/07/26 23:07:06;;;;;;;4.93;1.40;;;16.20;66.80;;;;;;5093676;28;20032;-43
2022/07/26 23:09:32;;;;;;;3.47;1.05;;;16.20;67.00;;;;;;5093642;28;20376;-39
2022/07/26 23:11:58;;;;;;;4.57;0.85;;;16.20;67.20;;;;;;5093801;28;20024;-38
2022/07/26 23:14:23;;;;;;;3.78;0.90;;;16.10;67.40;;;;;;5092213;28;20070;-40
2022/07/26 23:16:49;;;;;;;5.63;1.20;;;16.00;67.50;;;;;;5094528;28;20039;-38
2022/07/26 23:19:15;;;;;;;3.00;1.17;;;16.00;67.40;;;;;;5093622;28;20024;-41
2022/07/26 23:21:40;;;;;;;2.25;1.10;;;16.00;67.20;;;;;;5093108;28;20448;-39
2022/07/26 23:24:06;;;;;;;3.63;0.93;;;16.00;67.30;;;;;;5093295;28;20097;-38
2022/07/26 23:26:32;;;;;;;1.77;0.75;;;16.00;67.40;;;;;;5093172;28;20443;-38
2022/07/26 23:28:58;;;;;;;7.10;1.48;;;15.90;67.50;;;;;;5093693;28;20095;-38
2022/07/26 23:31:23;;;;;;;10.23;3.58;;;15.80;67.80;;;;;;5093501;28;20048;-40
2022/07/26 23:33:49;;;;;;;2.35;0.68;;;15.80;68.10;;;;;;5093402;28;20052;-39
2022/07/26 23:36:15;;;;;;;4.95;0.95;;;15.80;68.30;;;;;;5093442;28;20031;-42
2022/07/26 23:38:41;;;;;;;7.97;1.00;;;15.80;68.40;;;;;;5091965;28;20166;-39
2022/07/26 23:41:07;;;;;;;4.80;1.77;;;15.70;68.60;;;;;;5092920;28;20035;-38
2022/07/26 23:43:32;;;;;;;3.40;1.23;;;15.70;68.80;;;;;;5093379;28;20024;-39
2022/07/26 23:45:58;;;;;;;6.65;1.25;;;15.60;69.10;;;;;;5092946;28;20139;-38
2022/07/26 23:48:23;;;;;;;2.30;1.10;;;15.60;69.10;;;;;;5094455;28;20028;-40
2022/07/26 23:50:49;;;;;;;3.17;1.00;;;15.60;69.50;;;;;;5093266;28;20020;-39
2022/07/26 23:53:15;;;;;;;3.65;0.88;;;15.60;69.50;;;;;;5093784;28;20027;-39
2022/07/26 23:55:40;;;;;;;2.28;1.00;;;15.50;69.70;;;;;;5093274;28;20027;-38
2022/07/26 23:58:06;;;;;;;2.17;1.33;;;15.50;69.90;;;;;;5091666;28;20089;-39
